createdAt,value
2022-12-27T00:00:38.462Z,99923.92
2022-12-27T00:03:09.519Z,99921.52
2022-12-27T00:05:43.155Z,99918.98
2022-12-27T00:08:14.668Z,99914.73
2022-12-27T00:10:45.621Z,99917.30
2022-12-27T00:13:16.479Z,99913.06
2022-12-27T00:15:47.573Z,99909.30
2022-12-27T00:18:18.410Z,99913.73
2022-12-27T00:20:49.256Z,99915.61
2022-12-27T00:23:20.194Z,99913.39
2022-12-27T00:25:50.940Z,99909.66
2022-12-27T00:28:21.778Z,99909.32
2022-12-27T00:30:58.661Z,99906.09
2022-12-27T00:33:31.670Z,99906.94
2022-12-27T00:36:04.711Z,99904.20
2022-12-27T00:38:36.364Z,99903.51
2022-12-27T00:41:07.940Z,99906.23
2022-12-27T00:43:38.854Z,99906.38
2022-12-27T00:46:10.587Z,99908.59
2022-12-27T00:48:42.328Z,99907.23
2022-12-27T00:51:19.284Z,99915.92
2022-12-27T00:53:50.839Z,99921.37
2022-12-27T00:56:24.592Z,99924.77
2022-12-27T00:58:57.756Z,99921.02
2022-12-27T01:01:32.210Z,99927.82
2022-12-27T01:04:03.481Z,99911.96
2022-12-27T01:06:36.046Z,99917.58
2022-12-27T01:09:08.648Z,99922.00
2022-12-27T01:11:41.266Z,99916.87
2022-12-27T01:14:12.901Z,99916.34
2022-12-27T01:16:44.321Z,99917.85
2022-12-27T01:19:15.398Z,99919.02
2022-12-27T01:21:46.206Z,99918.19
2022-12-27T01:24:16.993Z,99905.21
2022-12-27T01:26:47.872Z,99913.55
2022-12-27T01:29:18.958Z,99919.65
2022-12-27T01:31:50.183Z,99910.59
2022-12-27T01:34:21.023Z,99911.98
2022-12-27T01:36:51.788Z,99906.36
2022-12-27T01:39:22.792Z,99906.35
2022-12-27T01:42:11.987Z,99917.61
2022-12-27T01:45:02.427Z,99915.38
2022-12-27T01:47:48.506Z,99923.04
2022-12-27T01:50:26.183Z,99920.63
2022-12-27T01:53:03.646Z,99919.09
2022-12-27T01:55:39.556Z,99918.71
2022-12-27T01:58:15.871Z,99917.17
2022-12-27T02:00:49.113Z,99909.33
2022-12-27T02:03:24.406Z,99907.11
2022-12-27T02:05:56.597Z,99910.16
2022-12-27T02:08:44.952Z,99908.12
2022-12-27T02:11:16.842Z,99904.71
2022-12-27T02:13:48.952Z,99903.54
2022-12-27T02:16:21.193Z,99904.57
2022-12-27T02:18:52.297Z,99902.37
2022-12-27T02:21:43.998Z,99903.73
2022-12-27T02:24:50.639Z,99903.73
2022-12-27T02:27:39.156Z,99903.73
2022-12-27T02:30:13.487Z,99906.63
2022-12-27T02:32:52.324Z,99905.09
2022-12-27T02:35:28.508Z,99908.34
2022-12-27T02:38:03.812Z,99906.64
2022-12-27T02:41:01.915Z,99905.45
2022-12-27T02:43:51.767Z,99911.08
2022-12-27T02:46:43.448Z,99910.26
2022-12-27T02:49:46.980Z,99914.89
2022-12-27T02:52:47.126Z,99924.95
2022-12-27T02:55:30.257Z,99922.75
2022-12-27T02:58:15.949Z,99926.01
2022-12-27T03:01:11.543Z,99926.85
2022-12-27T03:04:02.325Z,99929.25
2022-12-27T03:06:45.518Z,99941.20
2022-12-27T03:09:57.384Z,99934.59
2022-12-27T03:12:59.902Z,99939.24
2022-12-27T03:15:58.122Z,99964.73
2022-12-27T03:18:39.128Z,99974.55
2022-12-27T03:21:28.196Z,99983.84
2022-12-27T03:24:18.492Z,99995.87
2022-12-27T03:26:52.914Z,100011.84
2022-12-27T03:29:42.743Z,100026.56
2022-12-27T03:32:33.652Z,100041.14
2022-12-27T03:35:12.749Z,100047.54
2022-12-27T03:38:06.197Z,100060.01
2022-12-27T03:41:07.081Z,100063.79
2022-12-27T03:43:40.541Z,100065.33
2022-12-27T03:46:34.803Z,100068.56
2022-12-27T03:49:20.771Z,100081.12
2022-12-27T03:51:58.489Z,100090.10
2022-12-27T03:54:34.337Z,100090.09
2022-12-27T03:57:07.771Z,100087.02
2022-12-27T03:59:39.013Z,100097.87
2022-12-27T04:02:10.907Z,100113.63
2022-12-27T04:04:42.138Z,100122.11
2022-12-27T04:07:13.835Z,100127.55
2022-12-27T04:10:02.581Z,100120.57
2022-12-27T04:12:51.100Z,100120.54
2022-12-27T04:15:40.112Z,100122.55
2022-12-27T04:18:28.621Z,100117.25
2022-12-27T04:21:17.225Z,100120.61
2022-12-27T04:24:05.614Z,100124.83
2022-12-27T04:26:54.115Z,100138.40
2022-12-27T04:29:42.128Z,100143.65
2022-12-27T04:32:30.665Z,100150.25
2022-12-27T04:35:01.706Z,100158.22
2022-12-27T04:37:32.553Z,100151.08
2022-12-27T04:40:20.926Z,100160.58
2022-12-27T04:43:09.995Z,100169.90
2022-12-27T04:45:58.907Z,100179.91
2022-12-27T04:48:48.808Z,100180.61
2022-12-27T04:51:37.529Z,100182.15
2022-12-27T04:54:36.487Z,100182.49
2022-12-27T04:57:07.674Z,100188.60
2022-12-27T04:59:56.271Z,100196.05
2022-12-27T05:02:27.310Z,100203.66
2022-12-27T05:04:58.344Z,100203.12
2022-12-27T05:07:47.350Z,100208.84
2022-12-27T05:10:35.971Z,100214.08
2022-12-27T05:13:24.622Z,100218.82
2022-12-27T05:15:55.383Z,100221.52
2022-12-27T05:18:26.513Z,100225.75
2022-12-27T05:21:02.179Z,100236.06
2022-12-27T05:23:50.791Z,100238.92
2022-12-27T05:26:26.546Z,100239.05
2022-12-27T05:29:00.187Z,100248.34
2022-12-27T05:31:31.601Z,100249.98
2022-12-27T05:34:02.694Z,100251.61
2022-12-27T05:36:33.705Z,100254.59
2022-12-27T05:39:04.461Z,100260.44
2022-12-27T05:41:35.183Z,100269.69
2022-12-27T05:44:07.551Z,100271.16
2022-12-27T05:46:38.734Z,100279.08
2022-12-27T05:49:10.657Z,100278.86
2022-12-27T05:51:41.391Z,100278.82
2022-12-27T05:54:12.421Z,100281.50
2022-12-27T05:56:43.170Z,100284.52
2022-12-27T05:59:13.878Z,100289.60
2022-12-27T06:01:44.799Z,100294.67
2022-12-27T06:04:15.560Z,100305.36
2022-12-27T06:06:46.265Z,100313.81
2022-12-27T06:09:18.044Z,100318.36
2022-12-27T06:11:48.782Z,100322.72
2022-12-27T06:14:19.489Z,100324.19
2022-12-27T06:16:50.220Z,100324.65
2022-12-27T06:19:21.000Z,100325.29
2022-12-27T06:21:51.659Z,100328.10
2022-12-27T06:24:22.327Z,100331.05
2022-12-27T06:26:53.269Z,100329.11
2022-12-27T06:29:23.883Z,100326.44
2022-12-27T06:31:55.205Z,100331.60
2022-12-27T06:34:26.049Z,100339.51
2022-12-27T06:36:56.806Z,100348.27
2022-12-27T06:39:27.822Z,100348.55
2022-12-27T06:41:58.796Z,100353.59
2022-12-27T06:44:29.518Z,100358.31
2022-12-27T06:47:00.309Z,100366.41
2022-12-27T06:49:31.078Z,100368.10
2022-12-27T06:52:01.740Z,100369.79
2022-12-27T06:54:32.587Z,100374.70
2022-12-27T06:57:03.356Z,100374.86
2022-12-27T06:59:34.028Z,100383.32
2022-12-27T07:02:04.780Z,100388.92
2022-12-27T07:04:35.626Z,100396.75
2022-12-27T07:07:09.658Z,100402.23
2022-12-27T07:09:44.370Z,100406.54
2022-12-27T07:12:15.175Z,100410.52
2022-12-27T07:14:46.898Z,100416.02
2022-12-27T07:17:17.674Z,100415.89
2022-12-27T07:19:48.577Z,100418.33
2022-12-27T07:22:19.341Z,100428.48
2022-12-27T07:24:50.042Z,100427.27
2022-12-27T07:27:20.637Z,100429.80
2022-12-27T07:29:51.956Z,100434.39
2022-12-27T07:32:22.691Z,100430.33
2022-12-27T07:34:53.406Z,100441.40
2022-12-27T07:37:24.187Z,100448.04
2022-12-27T07:39:55.658Z,100447.00
2022-12-27T07:42:26.433Z,100447.91
2022-12-27T07:44:57.068Z,100448.98
2022-12-27T07:47:28.863Z,100452.13
2022-12-27T07:49:59.529Z,100453.53
2022-12-27T07:52:30.221Z,100458.59
2022-12-27T07:55:01.050Z,100462.52
2022-12-27T07:57:32.468Z,100464.23
2022-12-27T08:00:03.898Z,100466.29
2022-12-27T08:02:43.713Z,100466.70
2022-12-27T08:05:16.514Z,100468.23
2022-12-27T08:07:47.439Z,100478.91
2022-12-27T08:10:18.265Z,100484.66
2022-12-27T08:12:49.000Z,100490.38
2022-12-27T08:15:20.155Z,100499.31
2022-12-27T08:17:50.876Z,100501.77
2022-12-27T08:20:21.592Z,100506.27
2022-12-27T08:22:52.350Z,100509.95
2022-12-27T08:25:22.990Z,100506.11
2022-12-27T08:27:53.672Z,100517.05
2022-12-27T08:30:24.322Z,100516.90
2022-12-27T08:32:55.194Z,100514.08
2022-12-27T08:35:51.434Z,100513.13
2022-12-27T08:38:16.602Z,100520.38
2022-12-27T08:40:47.572Z,100522.90
2022-12-27T08:43:18.308Z,100529.83
2022-12-27T08:45:49.120Z,100526.54
2022-12-27T08:48:20.180Z,100533.08
2022-12-27T08:50:51.398Z,100537.11
2022-12-27T08:53:22.167Z,100538.08
2022-12-27T08:55:53.008Z,100545.52
2022-12-27T08:58:24.463Z,100551.78
2022-12-27T09:00:55.241Z,100551.41
2022-12-27T09:03:26.264Z,100558.00
2022-12-27T09:05:57.114Z,100560.88
2022-12-27T09:08:28.071Z,100565.98
2022-12-27T09:10:59.160Z,100562.27
2022-12-27T09:13:29.961Z,100567.38
2022-12-27T09:16:00.728Z,100562.95
2022-12-27T09:18:31.597Z,100563.46
2022-12-27T09:21:10.305Z,100563.80
2022-12-27T09:23:42.055Z,100568.03
2022-12-27T09:26:15.241Z,100569.04
2022-12-27T09:28:46.639Z,100563.55
2022-12-27T09:31:19.527Z,100562.85
2022-12-27T09:33:50.645Z,100557.71
2022-12-27T09:36:23.483Z,100562.96
2022-12-27T09:38:55.551Z,100563.73
2022-12-27T09:44:36.445Z,100570.17
2022-12-27T09:47:12.190Z,100573.95
2022-12-27T09:49:46.271Z,100576.38
2022-12-27T09:52:20.264Z,100576.06
2022-12-27T09:55:04.722Z,100576.75
2022-12-27T09:57:41.505Z,100574.02
2022-12-27T10:00:19.689Z,100576.25
2022-12-27T10:03:07.837Z,100579.31
2022-12-27T10:05:40.669Z,100585.08
2022-12-27T10:08:27.244Z,100588.47
2022-12-27T10:11:08.582Z,100594.94
2022-12-27T10:13:50.762Z,100591.87
2022-12-27T10:16:32.647Z,100595.97
2022-12-27T10:19:19.843Z,100599.44
2022-12-27T10:22:02.828Z,100599.31
2022-12-27T10:24:40.196Z,100593.21
2022-12-27T10:27:18.839Z,100596.64
2022-12-27T10:29:52.988Z,100588.48
2022-12-27T10:32:24.123Z,100589.56
2022-12-27T10:35:00.155Z,100592.86
2022-12-27T10:37:31.071Z,100588.19
2022-12-27T10:40:10.483Z,100589.43
2022-12-27T10:42:45.310Z,100591.52
2022-12-27T10:45:32.516Z,100597.33
2022-12-27T10:48:17.554Z,100599.89
2022-12-27T10:50:51.840Z,100601.08
2022-12-27T10:53:36.070Z,100601.41
2022-12-27T10:56:14.401Z,100601.05
2022-12-27T10:58:51.533Z,100601.68
2022-12-27T11:01:28.330Z,100601.46
2022-12-27T11:04:19.724Z,100594.77
2022-12-27T11:06:53.096Z,100586.55
2022-12-27T11:09:36.195Z,100590.41
2022-12-27T11:12:21.372Z,100584.44
2022-12-27T11:15:01.171Z,100586.98
2022-12-27T11:17:39.338Z,100586.80
2022-12-27T11:20:22.797Z,100589.86
2022-12-27T11:22:56.826Z,100590.70
2022-12-27T11:25:29.291Z,100593.58
2022-12-27T11:28:04.694Z,100596.30
2022-12-27T11:30:38.629Z,100596.30
2022-12-27T11:33:25.054Z,100597.66
2022-12-27T11:35:58.636Z,100607.50
2022-12-27T11:38:31.299Z,100608.83
2022-12-27T11:41:07.885Z,100611.73
2022-12-27T11:43:44.167Z,100622.64
2022-12-27T11:46:30.129Z,100619.66
2022-12-27T11:49:03.018Z,100630.82
2022-12-27T11:51:51.275Z,100627.48
2022-12-27T11:54:49.391Z,100635.10
2022-12-27T11:57:30.965Z,100638.42
2022-12-27T12:00:14.837Z,100641.23
2022-12-27T12:03:11.425Z,100641.02
2022-12-27T12:05:58.219Z,100648.96
2022-12-27T12:08:58.242Z,100651.45
2022-12-27T12:11:43.348Z,100657.14
2022-12-27T12:14:46.816Z,100658.75
2022-12-27T12:17:36.294Z,100657.80
2022-12-27T12:20:37.948Z,100661.59
2022-12-27T12:23:17.667Z,100661.80
2022-12-27T12:26:10.660Z,100670.06
2022-12-27T12:29:12.208Z,100668.98
2022-12-27T12:32:23.269Z,100675.88
2022-12-27T12:35:33.452Z,100678.30
2022-12-27T12:38:21.245Z,100680.43
2022-12-27T12:41:27.888Z,100681.02
2022-12-27T12:44:26.521Z,100680.39
2022-12-27T12:47:06.708Z,100681.83
2022-12-27T12:49:51.957Z,100682.79
2022-12-27T12:52:42.774Z,100685.31
2022-12-27T12:55:41.462Z,100684.76
2022-12-27T12:58:25.592Z,100687.94
2022-12-27T13:01:16.559Z,100689.94
2022-12-27T13:04:01.741Z,100682.47
2022-12-27T13:06:49.244Z,100680.27
2022-12-27T13:09:32.382Z,100677.23
2022-12-27T13:12:11.407Z,100680.79
2022-12-27T13:14:58.161Z,100682.44
2022-12-27T13:17:39.502Z,100681.41
2022-12-27T13:20:37.374Z,100685.11
2022-12-27T13:23:18.756Z,100686.74
2022-12-27T13:25:59.876Z,100690.23
2022-12-27T13:28:40.315Z,100693.73
2022-12-27T13:31:25.852Z,100698.26
2022-12-27T13:34:06.659Z,100695.83
2022-12-27T13:36:52.581Z,100699.42
2022-12-27T13:39:46.708Z,100709.09
2022-12-27T13:42:50.327Z,100720.14
2022-12-27T13:45:40.994Z,100727.47
2022-12-27T13:48:41.954Z,100724.25
2022-12-27T13:51:35.395Z,100726.62
2022-12-27T13:54:43.348Z,100727.94
2022-12-27T13:57:41.388Z,100732.64
2022-12-27T14:00:21.639Z,100728.71
2022-12-27T14:03:21.919Z,100731.90
2022-12-27T14:06:20.200Z,100732.70
2022-12-27T14:09:12.620Z,100728.13
2022-12-27T14:11:57.759Z,100729.64
2022-12-27T14:14:30.541Z,100721.52
2022-12-27T14:17:19.157Z,100720.19
2022-12-27T14:20:01.657Z,100725.48
2022-12-27T14:23:01.142Z,100729.61
2022-12-27T14:26:05.404Z,100733.05
2022-12-27T14:29:18.045Z,100731.73
2022-12-27T14:32:35.184Z,100735.13
2022-12-27T14:35:45.073Z,100744.10
2022-12-27T14:38:51.002Z,100752.35
2022-12-27T14:41:43.866Z,100756.92
2022-12-27T14:44:43.205Z,100760.98
2022-12-27T14:48:01.782Z,100766.40
2022-12-27T14:51:14.919Z,100765.89
2022-12-27T14:54:34.664Z,100768.98
2022-12-27T14:57:19.510Z,100768.16
2022-12-27T14:59:59.516Z,100773.80
2022-12-27T15:03:06.002Z,100770.95
2022-12-27T15:05:51.402Z,100773.33
2022-12-27T15:08:50.202Z,100774.34
2022-12-27T15:11:44.614Z,100772.33
2022-12-27T15:14:32.443Z,100775.20
2022-12-27T15:17:14.753Z,100778.90
2022-12-27T15:20:07.550Z,100783.13
2022-12-27T15:22:54.255Z,100786.16
2022-12-27T15:25:38.132Z,100789.73
2022-12-27T15:28:17.227Z,100793.80
2022-12-27T15:30:57.253Z,100791.78
2022-12-27T15:33:40.811Z,100788.88
2022-12-27T15:36:15.587Z,100784.07
2022-12-27T15:38:54.344Z,100785.03
2022-12-27T15:41:49.505Z,100782.79
2022-12-27T15:44:37.196Z,100781.69
2022-12-27T15:47:29.214Z,100783.68
2022-12-27T15:50:16.482Z,100788.40
2022-12-27T15:53:25.096Z,100788.71
2022-12-27T15:56:18.277Z,100792.11
2022-12-27T15:59:26.712Z,100794.17
2022-12-27T16:02:29.318Z,100798.09
2022-12-27T16:05:11.241Z,100805.92
2022-12-27T16:07:46.961Z,100804.56
2022-12-27T16:10:48.653Z,100808.79
2022-12-27T16:13:48.782Z,100815.21
2022-12-27T16:16:53.919Z,100805.83
2022-12-27T16:19:56.107Z,100806.50
2022-12-27T16:22:37.933Z,100802.63
2022-12-27T16:25:34.551Z,100807.70
2022-12-27T16:28:10.264Z,100807.54
2022-12-27T16:30:49.933Z,100806.52
2022-12-27T16:33:40.133Z,100805.63
2022-12-27T16:36:19.523Z,100803.88
2022-12-27T16:42:03.530Z,100808.93
2022-12-27T16:45:05.100Z,100809.91
2022-12-27T16:48:02.061Z,100806.73
2022-12-27T16:50:56.440Z,100810.16
2022-12-27T16:53:53.055Z,100814.27
2022-12-27T16:56:26.944Z,100820.42
2022-12-27T16:59:00.301Z,100825.23
2022-12-27T17:02:01.130Z,100827.94
2022-12-27T17:04:58.495Z,100830.33
2022-12-27T17:08:11.380Z,100836.27
2022-12-27T17:11:02.188Z,100831.84
2022-12-27T17:13:48.706Z,100830.61
2022-12-27T17:16:22.992Z,100831.75
2022-12-27T17:18:58.037Z,100833.70
2022-12-27T17:21:31.861Z,100839.73
2022-12-27T17:24:07.910Z,100842.57
2022-12-27T17:27:03.486Z,100840.85
2022-12-27T17:29:56.167Z,100842.72
2022-12-27T17:32:45.312Z,100841.25
2022-12-27T17:35:27.111Z,100844.36
2022-12-27T17:38:14.660Z,100846.83
2022-12-27T17:40:57.826Z,100848.06
2022-12-27T17:43:57.240Z,100855.86
2022-12-27T17:46:42.111Z,100853.67
2022-12-27T17:49:13.604Z,100856.05
2022-12-27T17:52:10.219Z,100854.00
2022-12-27T17:55:11.001Z,100852.61
2022-12-27T17:57:56.277Z,100855.48
2022-12-27T18:00:31.252Z,100862.94
2022-12-27T18:03:07.664Z,100863.30
2022-12-27T18:05:44.970Z,100865.36
2022-12-27T18:08:28.338Z,100865.17
2022-12-27T18:11:00.273Z,100872.61
2022-12-27T18:13:35.215Z,100870.22
2022-12-27T18:16:16.392Z,100872.90
2022-12-27T18:18:51.520Z,100878.30
2022-12-27T18:21:28.025Z,100874.88
2022-12-27T18:24:00.813Z,100875.36
2022-12-27T18:26:39.611Z,100874.84
2022-12-27T18:29:13.733Z,100875.39
2022-12-27T18:31:52.319Z,100882.05
2022-12-27T18:34:29.278Z,100887.16
2022-12-27T18:37:07.557Z,100889.88
2022-12-27T18:39:41.254Z,100893.14
2022-12-27T18:42:22.983Z,100894.68
2022-12-27T18:44:59.596Z,100898.92
2022-12-27T18:47:34.899Z,100905.72
2022-12-27T18:50:17.080Z,100902.85
2022-12-27T18:52:54.853Z,100903.69
2022-12-27T18:55:28.051Z,100906.58
2022-12-27T18:58:08.075Z,100909.77
2022-12-27T19:00:50.433Z,100906.85
2022-12-27T19:03:22.723Z,100910.09
2022-12-27T19:06:07.143Z,100911.28
2022-12-27T19:08:45.373Z,100919.61
2022-12-27T19:11:25.739Z,100919.98
2022-12-27T19:13:59.247Z,100919.84
2022-12-27T19:16:34.457Z,100922.57
2022-12-27T19:19:07.436Z,100923.42
2022-12-27T19:21:40.523Z,100924.91
2022-12-27T19:24:33.964Z,100921.15
2022-12-27T19:27:23.745Z,100919.59
2022-12-27T19:29:55.162Z,100920.86
2022-12-27T19:32:31.773Z,100914.52
2022-12-27T19:35:05.088Z,100919.57
2022-12-27T19:37:35.997Z,100915.45
2022-12-27T19:40:08.469Z,100916.64
2022-12-27T19:42:40.527Z,100920.06
2022-12-27T19:45:14.621Z,100922.63
2022-12-27T19:47:45.650Z,100922.20
2022-12-27T19:50:16.813Z,100925.79
2022-12-27T19:52:50.772Z,100930.56
2022-12-27T19:55:27.103Z,100935.64
2022-12-27T19:57:58.111Z,100940.85
2022-12-27T20:00:28.980Z,100948.42
2022-12-27T20:02:59.966Z,100952.45
2022-12-27T20:06:12.826Z,100953.79
2022-12-27T20:08:27.354Z,100956.49
2022-12-27T20:10:58.808Z,100957.16
2022-12-27T20:13:30.154Z,100957.63
2022-12-27T20:16:01.804Z,100960.98
2022-12-27T20:18:32.835Z,100963.30
2022-12-27T20:21:03.664Z,100962.95
2022-12-27T20:23:34.980Z,100965.10
2022-12-27T20:26:05.838Z,100968.11
2022-12-27T20:28:37.206Z,100974.27
2022-12-27T20:31:13.708Z,100977.77
2022-12-27T20:33:44.791Z,100973.94
2022-12-27T20:36:15.876Z,100976.75
2022-12-27T20:38:46.929Z,100971.46
2022-12-27T20:41:20.207Z,100974.33
2022-12-27T20:43:54.585Z,100977.70
2022-12-27T20:46:26.761Z,100975.63
2022-12-27T20:48:58.691Z,100978.35
2022-12-27T20:51:33.452Z,100978.02
2022-12-27T20:54:05.368Z,100986.02
2022-12-27T20:56:36.111Z,100989.98
2022-12-27T20:59:07.189Z,100991.57
2022-12-27T21:01:38.165Z,100995.70
2022-12-27T21:04:10.259Z,100996.40
2022-12-27T21:06:41.027Z,100994.02
2022-12-27T21:09:12.858Z,100996.55
2022-12-27T21:11:43.831Z,101000.59
2022-12-27T21:14:15.136Z,101003.61
2022-12-27T21:16:45.924Z,101007.83
2022-12-27T21:19:17.323Z,101006.27
2022-12-27T21:21:48.121Z,101007.77
2022-12-27T21:24:18.906Z,101001.84
2022-12-27T21:26:56.039Z,101005.09
2022-12-27T21:29:27.373Z,101009.27
2022-12-27T21:31:58.194Z,101014.12
2022-12-27T21:34:29.038Z,101021.30
2022-12-27T21:37:01.378Z,101015.40
2022-12-27T21:39:33.577Z,101012.89
2022-12-27T21:42:04.529Z,101018.34
2022-12-27T21:44:37.060Z,101018.86
2022-12-27T21:47:08.012Z,101023.46
2022-12-27T21:49:40.581Z,101024.42
2022-12-27T21:52:11.393Z,101022.83
2022-12-27T21:54:42.695Z,101025.48
2022-12-27T21:57:14.189Z,101026.61
2022-12-27T21:59:45.577Z,101027.96
2022-12-27T22:02:18.727Z,101027.60
2022-12-27T22:04:50.008Z,101026.26
2022-12-27T22:07:20.932Z,101028.14
2022-12-27T22:09:51.877Z,101030.91
2022-12-27T22:12:23.786Z,101038.09
2022-12-27T22:14:54.687Z,101033.85
2022-12-27T22:17:25.742Z,101035.02
2022-12-27T22:19:56.771Z,101040.23
2022-12-27T22:22:27.552Z,101041.54
2022-12-27T22:24:58.340Z,101041.74
2022-12-27T22:27:29.242Z,101044.59
2022-12-27T22:30:00.049Z,101049.46
2022-12-27T22:32:31.718Z,101046.90
2022-12-27T22:35:03.018Z,101047.92
2022-12-27T22:37:33.855Z,101050.50
2022-12-27T22:40:04.932Z,101048.66
2022-12-27T22:42:57.733Z,101044.81
2022-12-27T22:45:28.806Z,101043.17
2022-12-27T22:47:59.808Z,101044.23
2022-12-27T22:50:30.665Z,101046.45
2022-12-27T22:53:01.545Z,101046.94
2022-12-27T22:55:32.315Z,101041.98
2022-12-27T22:58:03.021Z,101042.10
2022-12-27T23:00:33.718Z,101042.20
2022-12-27T23:03:04.414Z,101040.63
2022-12-27T23:05:35.146Z,101038.06
2022-12-27T23:08:07.039Z,101036.30
2022-12-27T23:10:38.059Z,101029.65
2022-12-27T23:13:08.698Z,101031.35
2022-12-27T23:15:39.474Z,101027.33
2022-12-27T23:18:10.116Z,101034.84
2022-12-27T23:21:20.032Z,101034.58
2022-12-27T23:23:31.459Z,101036.01
2022-12-27T23:26:07.678Z,101033.67
2022-12-27T23:28:39.982Z,101034.37
2022-12-27T23:31:12.002Z,101029.65
2022-12-27T23:33:44.101Z,101033.05
2022-12-27T23:36:15.683Z,101035.92
2022-12-27T23:38:47.144Z,101039.65
2022-12-27T23:41:20.256Z,101040.48
2022-12-27T23:43:53.735Z,101038.27
2022-12-27T23:46:27.466Z,101040.99
2022-12-27T23:48:59.441Z,101040.02
2022-12-27T23:51:31.479Z,101042.42
2022-12-27T23:54:02.210Z,101042.63
2022-12-27T23:56:35.236Z,101041.33
2022-12-27T23:59:09.548Z,101043.55
